Terminal Aerodrome Forecast
Issued by NWS

Home | Current Version | Previous Version | Text Only | Print | Product List | Glossary On
Versions: 1 2 3 4 5 6 7 8 9 10 11 12 13 14 15 16 17
000
FTUS41 KPBZ 022300
TAFBVI
TAF
KBVI 022322Z 0300/0324 VRB03KT P6SM BKN150
     FM031800 13005KT 5SM -FZRASN OVC020
     FM032100 18008KT 2SM -RA BR OVC008
      AMD NOT SKED 0302/0312=

USA.gov is the U.S. government's official web portal to all federal, state and local government web resources and services.